sensor_id;sensor_type;location;lat;lon;timestamp;pressure;altitude;pressure_sealevel;temperature
66027;BMP280;56312;55.976;37.136;2022-12-07T00:05:03;99708.66;;;-2.65
66027;BMP280;56312;55.976;37.136;2022-12-07T00:10:10;99701.88;;;-2.67
66027;BMP280;56312;55.976;37.136;2022-12-07T00:15:16;99708.63;;;-2.66
66027;BMP280;56312;55.976;37.136;2022-12-07T00:20:22;99717.75;;;-2.69
66027;BMP280;56312;55.976;37.136;2022-12-07T00:25:29;99702.69;;;-2.68
66027;BMP280;56312;55.976;37.136;2022-12-07T00:30:36;99705.25;;;-2.66
66027;BMP280;56312;55.976;37.136;2022-12-07T01:09:39;99691.69;;;-2.71
66027;BMP280;56312;55.976;37.136;2022-12-07T01:14:45;99700.06;;;-2.72
66027;BMP280;56312;55.976;37.136;2022-12-07T01:19:51;99697.56;;;-2.71
66027;BMP280;56312;55.976;37.136;2022-12-07T01:24:57;99695.78;;;-2.75
66027;BMP280;56312;55.976;37.136;2022-12-07T01:30:04;99687.59;;;-2.68
66027;BMP280;56312;55.976;37.136;2022-12-07T01:35:12;99686.59;;;-2.74
66027;BMP280;56312;55.976;37.136;2022-12-07T01:40:18;99692.59;;;-2.69
66027;BMP280;56312;55.976;37.136;2022-12-07T01:50:37;99674.91;;;-2.72
66027;BMP280;56312;55.976;37.136;2022-12-07T01:55:45;99687.47;;;-2.74
66027;BMP280;56312;55.976;37.136;2022-12-07T02:00:56;99681.59;;;-2.73
66027;BMP280;56312;55.976;37.136;2022-12-07T02:06:02;99687.50;;;-2.71
66027;BMP280;56312;55.976;37.136;2022-12-07T02:11:11;99692.63;;;-2.68
66027;BMP280;56312;55.976;37.136;2022-12-07T02:16:21;99691.88;;;-2.66
66027;BMP280;56312;55.976;37.136;2022-12-07T02:21:51;99693.53;;;-2.66
66027;BMP280;56312;55.976;37.136;2022-12-07T02:27:06;99696.72;;;-2.71
66027;BMP280;56312;55.976;37.136;2022-12-07T02:38:12;99689.97;;;-2.74
66027;BMP280;56312;55.976;37.136;2022-12-07T02:43:24;99689.16;;;-2.73
66027;BMP280;56312;55.976;37.136;2022-12-07T02:48:33;99689.25;;;-2.68
66027;BMP280;56312;55.976;37.136;2022-12-07T02:53:41;99689.25;;;-2.68
66027;BMP280;56312;55.976;37.136;2022-12-07T03:14:31;99681.75;;;-2.67
66027;BMP280;56312;55.976;37.136;2022-12-07T03:19:44;99677.53;;;-2.68
66027;BMP280;56312;55.976;37.136;2022-12-07T03:24:53;99689.28;;;-2.67
66027;BMP280;56312;55.976;37.136;2022-12-07T03:30:07;99680.03;;;-2.69
66027;BMP280;56312;55.976;37.136;2022-12-07T03:40:30;99676.69;;;-2.68
66027;BMP280;56312;55.976;37.136;2022-12-07T03:45:56;99660.75;;;-2.69
66027;BMP280;56312;55.976;37.136;2022-12-07T03:51:18;99674.22;;;-2.67
66027;BMP280;56312;55.976;37.136;2022-12-07T03:56:28;99673.44;;;-2.65
66027;BMP280;56312;55.976;37.136;2022-12-07T04:01:35;99663.38;;;-2.65
66027;BMP280;56312;55.976;37.136;2022-12-07T04:06:42;99665.88;;;-2.66
66027;BMP280;56312;55.976;37.136;2022-12-07T04:11:48;99671.75;;;-2.66
66027;BMP280;56312;55.976;37.136;2022-12-07T04:16:55;99669.19;;;-2.67
66027;BMP280;56312;55.976;37.136;2022-12-07T04:22:03;99662.44;;;-2.68
66027;BMP280;56312;55.976;37.136;2022-12-07T04:27:10;99652.38;;;-2.68
66027;BMP280;56312;55.976;37.136;2022-12-07T04:32:16;99653.09;;;-2.73
66027;BMP280;56312;55.976;37.136;2022-12-07T04:37:23;99652.31;;;-2.71
66027;BMP280;56312;55.976;37.136;2022-12-07T04:42:29;99647.38;;;-2.68
66027;BMP280;56312;55.976;37.136;2022-12-07T04:47:36;99643.25;;;-2.65
66027;BMP280;56312;55.976;37.136;2022-12-07T04:52:42;99647.38;;;-2.68
66027;BMP280;56312;55.976;37.136;2022-12-07T04:57:48;99645.69;;;-2.67
66027;BMP280;56312;55.976;37.136;2022-12-07T05:02:55;99652.38;;;-2.69
66027;BMP280;56312;55.976;37.136;2022-12-07T05:08:01;99651.47;;;-2.71
66027;BMP280;56312;55.976;37.136;2022-12-07T05:13:07;99659.06;;;-2.70
66027;BMP280;56312;55.976;37.136;2022-12-07T05:18:13;99658.28;;;-2.67
66027;BMP280;56312;55.976;37.136;2022-12-07T05:23:20;99644.75;;;-2.71
66027;BMP280;56312;55.976;37.136;2022-12-07T05:28:26;99662.31;;;-2.74
66027;BMP280;56312;55.976;37.136;2022-12-07T05:33:32;99670.72;;;-2.72
66027;BMP280;56312;55.976;37.136;2022-12-07T05:38:39;99656.50;;;-2.71
66027;BMP280;56312;55.976;37.136;2022-12-07T05:43:45;99659.78;;;-2.74
66027;BMP280;56312;55.976;37.136;2022-12-07T05:48:52;99653.09;;;-2.73
66027;BMP280;56312;55.976;37.136;2022-12-07T05:53:58;99646.38;;;-2.74
66027;BMP280;56312;55.976;37.136;2022-12-07T05:59:04;99646.31;;;-2.76
66027;BMP280;56312;55.976;37.136;2022-12-07T06:04:30;99643.81;;;-2.76
66027;BMP280;56312;55.976;37.136;2022-12-07T06:09:38;99654.88;;;-2.69
66027;BMP280;56312;55.976;37.136;2022-12-07T06:14:44;99642.22;;;-2.72
66027;BMP280;56312;55.976;37.136;2022-12-07T06:19:51;99642.22;;;-2.72
66027;BMP280;56312;55.976;37.136;2022-12-07T06:24:57;99634.66;;;-2.74
66027;BMP280;56312;55.976;37.136;2022-12-07T06:30:04;99629.75;;;-2.68
66027;BMP280;56312;55.976;37.136;2022-12-07T06:35:12;99630.47;;;-2.73
66027;BMP280;56312;55.976;37.136;2022-12-07T06:40:18;99617.16;;;-2.69
66027;BMP280;56312;55.976;37.136;2022-12-07T06:45:24;99628.06;;;-2.69
66027;BMP280;56312;55.976;37.136;2022-12-07T06:50:31;99629.84;;;-2.65
66027;BMP280;56312;55.976;37.136;2022-12-07T06:55:37;99634.88;;;-2.65
66027;BMP280;56312;55.976;37.136;2022-12-07T07:00:44;99628.06;;;-2.69
66027;BMP280;56312;55.976;37.136;2022-12-07T07:05:50;99623.91;;;-2.67
66027;BMP280;56312;55.976;37.136;2022-12-07T07:10:57;99618.94;;;-2.66
66027;BMP280;56312;55.976;37.136;2022-12-07T07:16:03;99622.88;;;-2.75
66027;BMP280;56312;55.976;37.136;2022-12-07T07:21:10;99631.66;;;-2.92
66027;BMP280;56312;55.976;37.136;2022-12-07T07:26:16;99617.50;;;-2.88
66027;BMP280;56312;55.976;37.136;2022-12-07T07:31:23;99617.72;;;-2.79
66027;BMP280;56312;55.976;37.136;2022-12-07T07:36:29;99616.25;;;-2.71
66027;BMP280;56312;55.976;37.136;2022-12-07T07:41:35;99617.28;;;-2.64
66027;BMP280;56312;55.976;37.136;2022-12-07T07:46:41;99609.66;;;-2.68
66027;BMP280;56312;55.976;37.136;2022-12-07T07:51:48;99597.91;;;-2.67
66027;BMP280;56312;55.976;37.136;2022-12-07T07:56:54;99597.97;;;-2.66
66027;BMP280;56312;55.976;37.136;2022-12-07T08:02:00;99581.16;;;-2.67
66027;BMP280;56312;55.976;37.136;2022-12-07T08:07:07;99581.97;;;-2.68
66027;BMP280;56312;55.976;37.136;2022-12-07T08:12:13;99572.66;;;-2.72
66027;BMP280;56312;55.976;37.136;2022-12-07T08:17:19;99558.38;;;-2.74
66027;BMP280;56312;55.976;37.136;2022-12-07T08:22:26;99541.50;;;-2.78
66027;BMP280;56312;55.976;37.136;2022-12-07T08:27:32;99544.06;;;-2.77
66027;BMP280;56312;55.976;37.136;2022-12-07T08:32:38;99541.53;;;-2.77
66027;BMP280;56312;55.976;37.136;2022-12-07T08:37:45;99542.38;;;-2.76
66027;BMP280;56312;55.976;37.136;2022-12-07T08:42:51;99541.66;;;-2.72
66027;BMP280;56312;55.976;37.136;2022-12-07T08:48:00;99536.50;;;-2.77
66027;BMP280;56312;55.976;37.136;2022-12-07T08:53:09;99546.66;;;-2.74
66027;BMP280;56312;55.976;37.136;2022-12-07T08:58:16;99543.31;;;-2.73
66027;BMP280;56312;55.976;37.136;2022-12-07T09:03:22;99530.75;;;-2.71
66027;BMP280;56312;55.976;37.136;2022-12-07T09:08:36;99532.34;;;-2.75
66027;BMP280;56312;55.976;37.136;2022-12-07T09:13:47;99529.63;;;-2.84
66027;BMP280;56312;55.976;37.136;2022-12-07T09:18:53;99525.53;;;-2.80
66027;BMP280;56312;55.976;37.136;2022-12-07T09:24:00;99528.06;;;-2.79
66027;BMP280;56312;55.976;37.136;2022-12-07T09:29:06;99529.06;;;-2.72
66027;BMP280;56312;55.976;37.136;2022-12-07T09:34:13;99515.03;;;-2.63
66027;BMP280;56312;55.976;37.136;2022-12-07T09:39:19;99515.34;;;-2.51
66027;BMP280;56312;55.976;37.136;2022-12-07T09:44:26;99506.06;;;-2.54
66027;BMP280;56312;55.976;37.136;2022-12-07T09:49:33;99502.78;;;-2.50
66027;BMP280;56312;55.976;37.136;2022-12-07T09:54:41;99499.38;;;-2.52
66027;BMP280;56312;55.976;37.136;2022-12-07T09:59:51;99491.81;;;-2.53
66027;BMP280;56312;55.976;37.136;2022-12-07T10:04:57;99488.47;;;-2.52
66027;BMP280;56312;55.976;37.136;2022-12-07T10:10:05;99471.78;;;-2.49
66027;BMP280;56312;55.976;37.136;2022-12-07T10:15:20;99470.06;;;-2.51
66027;BMP280;56312;55.976;37.136;2022-12-07T10:20:26;99466.66;;;-2.53
66027;BMP280;56312;55.976;37.136;2022-12-07T10:25:34;99463.41;;;-2.49
66027;BMP280;56312;55.976;37.136;2022-12-07T10:41:24;99438.09;;;-2.55
66027;BMP280;56312;55.976;37.136;2022-12-07T11:18:29;99407.91;;;-2.57
66027;BMP280;56312;55.976;37.136;2022-12-07T11:29:34;99406.22;;;-2.58
66027;BMP280;56312;55.976;37.136;2022-12-07T11:34:59;99398.59;;;-2.59
66027;BMP280;56312;55.976;37.136;2022-12-07T11:45:26;99402.84;;;-2.58
66027;BMP280;56312;55.976;37.136;2022-12-07T11:50:45;99389.44;;;-2.57
66027;BMP280;56312;55.976;37.136;2022-12-07T12:06:41;99370.19;;;-2.57
66027;BMP280;56312;55.976;37.136;2022-12-07T12:17:27;99359.25;;;-2.59
66027;BMP280;56312;55.976;37.136;2022-12-07T12:23:07;99369.31;;;-2.57
66027;BMP280;56312;55.976;37.136;2022-12-07T12:33:49;99361.88;;;-2.53
66027;BMP280;56312;55.976;37.136;2022-12-07T12:54:32;99351.66;;;-2.60
66027;BMP280;56312;55.976;37.136;2022-12-07T13:05:02;99339.16;;;-2.57
66027;BMP280;56312;55.976;37.136;2022-12-07T13:15:40;99329.91;;;-2.58
66027;BMP280;56312;55.976;37.136;2022-12-07T13:21:39;99330.72;;;-2.59
66027;BMP280;56312;55.976;37.136;2022-12-07T13:42:27;99321.38;;;-2.65
66027;BMP280;56312;55.976;37.136;2022-12-07T13:47:46;99313.88;;;-2.63
66027;BMP280;56312;55.976;37.136;2022-12-07T13:52:58;99308.06;;;-2.61
66027;BMP280;56312;55.976;37.136;2022-12-07T13:58:07;99304.63;;;-2.66
66027;BMP280;56312;55.976;37.136;2022-12-07T14:08:22;99307.19;;;-2.63
66027;BMP280;56312;55.976;37.136;2022-12-07T14:13:32;99298.75;;;-2.66
66027;BMP280;56312;55.976;37.136;2022-12-07T14:18:40;99302.09;;;-2.66
66027;BMP280;56312;55.976;37.136;2022-12-07T14:24:02;99293.72;;;-2.66
66027;BMP280;56312;55.976;37.136;2022-12-07T14:34:32;99292.00;;;-2.67
66027;BMP280;56312;55.976;37.136;2022-12-07T14:39:39;99266.91;;;-2.66
66027;BMP280;56312;55.976;37.136;2022-12-07T14:44:45;99261.75;;;-2.71
66027;BMP280;56312;55.976;37.136;2022-12-07T14:49:51;99262.72;;;-2.65
66027;BMP280;56312;55.976;37.136;2022-12-07T14:54:58;99261.81;;;-2.68
66027;BMP280;56312;55.976;37.136;2022-12-07T15:00:04;99260.97;;;-2.69
66027;BMP280;56312;55.976;37.136;2022-12-07T15:05:11;99261.78;;;-2.70
66027;BMP280;56312;55.976;37.136;2022-12-07T15:10:22;99253.34;;;-2.72
66027;BMP280;56312;55.976;37.136;2022-12-07T15:15:35;99260.81;;;-2.76
66027;BMP280;56312;55.976;37.136;2022-12-07T15:20:41;99280.22;;;-2.69
66027;BMP280;56312;55.976;37.136;2022-12-07T15:25:48;99264.22;;;-2.73
66027;BMP280;56312;55.976;37.136;2022-12-07T15:30:55;99278.47;;;-2.73
66027;BMP280;56312;55.976;37.136;2022-12-07T15:36:01;99275.13;;;-2.74
66027;BMP280;56312;55.976;37.136;2022-12-07T15:41:07;99281.84;;;-2.71
66027;BMP280;56312;55.976;37.136;2022-12-07T15:46:13;99272.69;;;-2.69
66027;BMP280;56312;55.976;37.136;2022-12-07T15:51:20;99278.56;;;-2.69
66027;BMP280;56312;55.976;37.136;2022-12-07T15:56:26;99278.56;;;-2.69
66027;BMP280;56312;55.976;37.136;2022-12-07T16:01:32;99278.63;;;-2.66
66027;BMP280;56312;55.976;37.136;2022-12-07T16:06:39;99289.47;;;-2.68
66027;BMP280;56312;55.976;37.136;2022-12-07T16:11:45;99281.84;;;-2.71
66027;BMP280;56312;55.976;37.136;2022-12-07T16:16:52;99284.44;;;-2.68
66027;BMP280;56312;55.976;37.136;2022-12-07T16:21:58;99286.94;;;-2.70
66027;BMP280;56312;55.976;37.136;2022-12-07T16:27:04;99287.84;;;-2.65
66027;BMP280;56312;55.976;37.136;2022-12-07T16:32:11;99274.38;;;-2.68
66027;BMP280;56312;55.976;37.136;2022-12-07T16:37:17;99290.31;;;-2.68
66027;BMP280;56312;55.976;37.136;2022-12-07T16:42:23;99286.84;;;-2.74
66027;BMP280;56312;55.976;37.136;2022-12-07T16:47:30;99282.75;;;-2.69
66027;BMP280;56312;55.976;37.136;2022-12-07T16:52:36;99291.06;;;-2.72
66027;BMP280;56312;55.976;37.136;2022-12-07T16:57:42;99278.50;;;-2.72
66027;BMP280;56312;55.976;37.136;2022-12-07T17:02:48;99273.53;;;-2.69
66027;BMP280;56312;55.976;37.136;2022-12-07T17:07:55;99258.31;;;-2.75
66027;BMP280;56312;55.976;37.136;2022-12-07T17:13:02;99254.19;;;-2.73
66027;BMP280;56312;55.976;37.136;2022-12-07T17:18:30;99245.81;;;-2.72
66027;BMP280;56312;55.976;37.136;2022-12-07T17:23:40;99245.06;;;-2.68
66027;BMP280;56312;55.976;37.136;2022-12-07T17:28:46;99234.91;;;-2.72
66027;BMP280;56312;55.976;37.136;2022-12-07T17:33:53;99245.91;;;-2.67
66027;BMP280;56312;55.976;37.136;2022-12-07T17:39:00;99234.91;;;-2.74
66027;BMP280;56312;55.976;37.136;2022-12-07T17:44:09;99241.53;;;-2.76
66027;BMP280;56312;55.976;37.136;2022-12-07T17:49:17;99234.81;;;-2.77
66027;BMP280;56312;55.976;37.136;2022-12-07T17:54:23;99234.91;;;-2.74
66027;BMP280;56312;55.976;37.136;2022-12-07T17:59:30;99232.31;;;-2.77
66027;BMP280;56312;55.976;37.136;2022-12-07T18:04:36;99230.56;;;-2.79
66027;BMP280;56312;55.976;37.136;2022-12-07T18:09:43;99217.09;;;-2.83
66027;BMP280;56312;55.976;37.136;2022-12-07T18:14:49;99216.47;;;-2.73
66027;BMP280;56312;55.976;37.136;2022-12-07T18:19:55;99208.84;;;-2.77
66027;BMP280;56312;55.976;37.136;2022-12-07T18:25:02;99209.63;;;-2.80
66027;BMP280;56312;55.976;37.136;2022-12-07T18:30:08;99200.47;;;-2.78
66027;BMP280;56312;55.976;37.136;2022-12-07T18:35:15;99208.03;;;-2.75
66027;BMP280;56312;55.976;37.136;2022-12-07T18:40:21;99206.34;;;-2.76
66027;BMP280;56312;55.976;37.136;2022-12-07T18:45:28;99201.25;;;-2.79
66027;BMP280;56312;55.976;37.136;2022-12-07T18:50:34;99204.69;;;-2.75
66027;BMP280;56312;55.976;37.136;2022-12-07T18:55:41;99191.25;;;-2.76
66027;BMP280;56312;55.976;37.136;2022-12-07T19:00:47;99179.47;;;-2.80
66027;BMP280;56312;55.976;37.136;2022-12-07T19:05:54;99161.00;;;-2.82
66027;BMP280;56312;55.976;37.136;2022-12-07T19:11:02;99167.69;;;-2.82
66027;BMP280;56312;55.976;37.136;2022-12-07T19:16:28;99169.25;;;-2.89
66027;BMP280;56312;55.976;37.136;2022-12-07T19:21:34;99146.69;;;-2.86
66027;BMP280;56312;55.976;37.136;2022-12-07T19:26:41;99145.03;;;-2.84
66027;BMP280;56312;55.976;37.136;2022-12-07T19:31:47;99148.44;;;-2.82
66027;BMP280;56312;55.976;37.136;2022-12-07T19:36:53;99155.13;;;-2.82
66027;BMP280;56312;55.976;37.136;2022-12-07T19:42:00;99139.19;;;-2.83
66027;BMP280;56312;55.976;37.136;2022-12-07T19:47:06;99142.50;;;-2.84
66027;BMP280;56312;55.976;37.136;2022-12-07T19:52:13;99145.91;;;-2.82
66027;BMP280;56312;55.976;37.136;2022-12-07T19:57:20;99142.66;;;-2.78
66027;BMP280;56312;55.976;37.136;2022-12-07T20:02:26;99150.94;;;-2.82
66027;BMP280;56312;55.976;37.136;2022-12-07T20:07:32;99147.59;;;-2.81
66027;BMP280;56312;55.976;37.136;2022-12-07T20:12:43;99136.78;;;-2.77
66027;BMP280;56312;55.976;37.136;2022-12-07T20:18:08;99140.06;;;-2.82
66027;BMP280;56312;55.976;37.136;2022-12-07T20:23:14;99138.38;;;-2.82
66027;BMP280;56312;55.976;37.136;2022-12-07T20:28:20;99135.88;;;-2.82
66027;BMP280;56312;55.976;37.136;2022-12-07T20:33:27;99131.59;;;-2.86
66027;BMP280;56312;55.976;37.136;2022-12-07T20:38:34;99119.06;;;-2.83
66027;BMP280;56312;55.976;37.136;2022-12-07T20:43:41;99119.06;;;-2.83
66027;BMP280;56312;55.976;37.136;2022-12-07T20:48:48;99117.38;;;-2.84
66027;BMP280;56312;55.976;37.136;2022-12-07T20:53:54;99125.69;;;-2.88
66027;BMP280;56312;55.976;37.136;2022-12-07T20:59:02;99122.41;;;-2.84
66027;BMP280;56312;55.976;37.136;2022-12-07T21:04:09;99112.41;;;-2.82
66027;BMP280;56312;55.976;37.136;2022-12-07T21:09:17;99096.41;;;-2.86
66027;BMP280;56312;55.976;37.136;2022-12-07T21:14:24;99097.28;;;-2.84
66027;BMP280;56312;55.976;37.136;2022-12-07T21:19:30;99110.75;;;-2.80
66027;BMP280;56312;55.976;37.136;2022-12-07T21:24:37;99111.56;;;-2.81
66027;BMP280;56312;55.976;37.136;2022-12-07T21:29:44;99117.38;;;-2.84
66027;BMP280;56312;55.976;37.136;2022-12-07T21:34:50;99126.59;;;-2.86
66027;BMP280;56312;55.976;37.136;2022-12-07T21:39:56;99116.56;;;-2.83
66027;BMP280;56312;55.976;37.136;2022-12-07T21:45:03;99126.72;;;-2.78
66027;BMP280;56312;55.976;37.136;2022-12-07T21:50:10;99132.53;;;-2.81
66027;BMP280;56312;55.976;37.136;2022-12-07T21:55:16;99128.28;;;-2.83
66027;BMP280;56312;55.976;37.136;2022-12-07T22:00:22;99134.16;;;-2.83
66027;BMP280;56312;55.976;37.136;2022-12-07T22:05:29;99136.72;;;-2.80
66027;BMP280;56312;55.976;37.136;2022-12-07T22:10:35;99129.94;;;-2.85
66027;BMP280;56312;55.976;37.136;2022-12-07T22:15:42;99114.00;;;-2.86
66027;BMP280;56312;55.976;37.136;2022-12-07T22:20:48;99119.97;;;-2.79
66027;BMP280;56312;55.976;37.136;2022-12-07T22:25:54;99115.78;;;-2.79
66027;BMP280;56312;55.976;37.136;2022-12-07T22:31:04;99118.28;;;-2.82
66027;BMP280;56312;55.976;37.136;2022-12-07T22:36:11;99122.53;;;-2.78
66027;BMP280;56312;55.976;37.136;2022-12-07T22:41:22;99120.78;;;-2.82
66027;BMP280;56312;55.976;37.136;2022-12-07T22:46:33;99108.22;;;-2.82
66027;BMP280;56312;55.976;37.136;2022-12-07T22:51:40;99103.97;;;-2.86
66027;BMP280;56312;55.976;37.136;2022-12-07T22:56:46;99100.69;;;-2.82
66027;BMP280;56312;55.976;37.136;2022-12-07T23:01:52;99085.59;;;-2.82
66027;BMP280;56312;55.976;37.136;2022-12-07T23:06:59;99089.66;;;-2.90
66027;BMP280;56312;55.976;37.136;2022-12-07T23:12:05;99081.44;;;-2.80
66027;BMP280;56312;55.976;37.136;2022-12-07T23:17:30;99074.66;;;-2.84
66027;BMP280;56312;55.976;37.136;2022-12-07T23:22:37;99076.31;;;-2.84
66027;BMP280;56312;55.976;37.136;2022-12-07T23:27:43;99081.38;;;-2.83
66027;BMP280;56312;55.976;37.136;2022-12-07T23:32:49;99060.41;;;-2.85
66027;BMP280;56312;55.976;37.136;2022-12-07T23:37:55;99051.97;;;-2.87
66027;BMP280;56312;55.976;37.136;2022-12-07T23:43:02;99059.69;;;-2.76
66027;BMP280;56312;55.976;37.136;2022-12-07T23:48:08;99064.66;;;-2.81
66027;BMP280;56312;55.976;37.136;2022-12-07T23:53:14;99052.88;;;-2.83
66027;BMP280;56312;55.976;37.136;2022-12-07T23:58:21;99046.19;;;-2.83
